Time;durP1;ratioP1;P1;durP2;ratioP2;P2;SDS_P1;SDS_P2;PMS_P1;PMS_P2;Temp;Humidity;BMP_temperature;BMP_pressure;BME280_temperature;BME280_humidity;BME280_pressure;Samples;Min_cycle;Max_cycle;Signal;HPM_P1;HPM_P2
2021/06/09 00:01:35;;;;;;;8.57;7.68;;;;;;;14.91;84.83;93792.75;6108599;23;20022;-87
2021/06/09 00:04:01;;;;;;;11.18;7.22;;;;;;;14.83;84.77;93792.75;6108736;23;20009;-87
2021/06/09 00:06:27;;;;;;;7.88;7.13;;;;;;;14.66;85.10;93764.31;6120815;23;20002;-88
2021/06/09 00:08:52;;;;;;;10.50;7.75;;;;;;;14.55;84.79;93747.09;6110409;23;20484;-88
2021/06/09 00:11:18;;;;;;;8.18;7.38;;;;;;;14.58;85.14;93746.47;6108004;23;20017;-88
2021/06/09 00:13:44;;;;;;;12.13;7.57;;;;;;;14.62;84.78;93760.69;6115588;23;20018;-87
2021/06/09 00:16:13;;;;;;;10.55;8.98;;;;;;;14.70;84.72;93773.22;6107020;23;20500;-87
2021/06/09 00:18:40;;;;;;;9.30;7.97;;;;;;;14.86;84.89;93792.91;6109736;23;20104;-88
2021/06/09 00:21:05;;;;;;;14.25;9.50;;;;;;;14.68;84.73;93770.88;6104115;23;20014;-88
2021/06/09 00:23:31;;;;;;;13.82;11.00;;;;;;;14.78;85.06;93779.63;6112211;23;20017;-87
2021/06/09 00:26:01;;;;;;;13.55;10.77;;;;;;;14.83;85.39;93787.44;6114793;23;20112;-87
2021/06/09 00:28:27;;;;;;;11.35;10.23;;;;;;;14.69;85.84;93769.78;6106420;23;20044;-86
2021/06/09 00:30:53;;;;;;;10.65;9.50;;;;;;;14.71;85.58;93766.78;6111745;23;20421;-86
2021/06/09 00:33:18;;;;;;;9.23;7.97;;;;;;;14.76;85.59;93771.94;6106944;23;20049;-87
2021/06/09 00:35:44;;;;;;;13.02;9.43;;;;;;;14.76;85.14;93768.53;6104619;23;20018;-88
2021/06/09 00:38:10;;;;;;;10.70;8.38;;;;;;;14.71;85.04;93758.81;6113010;23;20026;-88
2021/06/09 00:40:37;;;;;;;11.60;8.48;;;;;;;14.66;85.03;93759.00;6106572;23;20543;-86
2021/06/09 00:43:25;;;;;;;11.68;9.43;;;;;;;14.81;84.70;93781.66;6119045;23;20005;-87
2021/06/09 00:45:58;;;;;;;11.70;9.65;;;;;;;14.47;84.95;93739.88;6121278;23;20060;-88
2021/06/09 00:48:27;;;;;;;11.20;9.20;;;;;;;14.61;85.18;93767.13;6109750;23;20041;-88
2021/06/09 00:50:54;;;;;;;12.65;9.13;;;;;;;14.78;84.84;93793.69;6098379;23;20026;-88
2021/06/09 00:53:33;;;;;;;13.85;10.27;;;;;;;14.71;84.96;93782.72;6105658;23;20025;-89
2021/06/09 00:56:01;;;;;;;12.48;11.02;;;;;;;14.71;84.91;93786.19;6110773;23;20018;-88
2021/06/09 00:58:32;;;;;;;15.27;12.00;;;;;;;14.58;84.99;93757.09;6114883;23;20020;-88
2021/06/09 01:00:59;;;;;;;12.20;10.90;;;;;;;14.65;85.14;93770.72;6117929;23;20085;-85
2021/06/09 01:03:25;;;;;;;13.95;11.70;;;;;;;14.53;85.62;93758.03;6119286;23;20001;-87
2021/06/09 01:05:51;;;;;;;13.20;11.65;;;;;;;14.64;85.82;93790.41;6109330;23;20500;-88
2021/06/09 01:08:16;;;;;;;12.75;11.43;;;;;;;14.51;85.94;93772.75;6108503;23;20026;-89
2021/06/09 01:10:50;;;;;;;16.40;13.02;;;;;;;14.60;85.29;93766.34;6106279;23;20010;-88
2021/06/09 01:13:26;;;;;;;16.50;13.13;;;;;;;14.82;85.41;93791.97;6106325;23;20006;-88
2021/06/09 01:15:51;;;;;;;16.40;12.68;;;;;;;14.64;85.20;93761.94;6119211;23;20321;-88
2021/06/09 01:18:17;;;;;;;16.20;12.18;;;;;;;14.66;85.04;93764.31;6103549;23;20029;-87
2021/06/09 01:20:43;;;;;;;15.82;12.65;;;;;;;14.85;84.87;93795.91;6107301;23;20036;-86
2021/06/09 01:23:09;;;;;;;17.17;15.18;;;;;;;14.83;85.47;93795.41;6113916;23;20022;-85
2021/06/09 01:25:34;;;;;;;20.45;14.35;;;;;;;14.87;85.35;93802.44;6105763;23;20672;-86
2021/06/09 01:28:01;;;;;;;20.42;15.98;;;;;;;14.73;85.25;93776.03;6106758;23;20024;-85
2021/06/09 01:30:28;;;;;;;17.75;14.85;;;;;;;14.67;85.31;93763.97;6110360;23;20019;-87
2021/06/09 01:32:54;;;;;;;20.27;16.58;;;;;;;14.60;85.33;93746.94;6103167;23;20017;-86
2021/06/09 01:35:20;;;;;;;21.65;17.45;;;;;;;14.65;85.39;93755.53;6113134;23;20014;-87
2021/06/09 01:37:47;;;;;;;26.23;20.38;;;;;;;14.65;85.91;93754.75;6107768;23;20440;-88
2021/06/09 01:40:19;;;;;;;27.15;19.92;;;;;;;14.42;86.07;93742.69;6116525;23;20013;-89
2021/06/09 01:42:44;;;;;;;27.13;20.50;;;;;;;14.72;86.16;93774.44;6108599;23;20006;-88
2021/06/09 01:45:13;;;;;;;27.95;19.95;;;;;;;14.73;86.17;93780.56;6106719;23;20025;-89
2021/06/09 01:47:39;;;;;;;27.88;20.95;;;;;;;14.70;86.12;93781.19;6112788;23;20022;-88
2021/06/09 01:50:07;;;;;;;22.95;17.27;;;;;;;14.69;86.14;93784.94;6109372;23;20444;-89
2021/06/09 01:52:32;;;;;;;24.10;18.25;;;;;;;14.52;86.03;93776.94;6105990;23;20349;-88
2021/06/09 01:54:59;;;;;;;21.50;17.67;;;;;;;14.47;85.90;93755.84;6107641;23;20009;-88
2021/06/09 01:57:26;;;;;;;20.73;16.90;;;;;;;14.62;85.40;93773.97;6120741;23;20073;-88
2021/06/09 01:59:51;;;;;;;18.10;15.77;;;;;;;14.70;85.45;93791.84;6110773;23;20017;-88
2021/06/09 02:02:17;;;;;;;20.45;16.13;;;;;;;14.43;85.49;93752.25;6109073;23;20077;-89
2021/06/09 02:04:42;;;;;;;24.10;19.08;;;;;;;14.78;85.32;93788.38;6106675;23;20025;-88
2021/06/09 02:07:08;;;;;;;24.88;18.98;;;;;;;14.80;85.27;93791.53;6118086;23;20016;-89
2021/06/09 02:09:38;;;;;;;29.60;21.67;;;;;;;14.66;85.62;93749.09;6111526;23;20077;-88
2021/06/09 02:12:08;;;;;;;30.00;20.67;;;;;;;14.82;86.03;93773.34;6110446;23;20656;-89
2021/06/09 02:14:35;;;;;;;27.52;20.83;;;;;;;14.89;86.56;93792.28;6108183;23;20018;-89
2021/06/09 02:17:00;;;;;;;25.77;19.60;;;;;;;14.81;86.37;93755.81;6114364;23;20026;-88
2021/06/09 02:19:28;;;;;;;23.83;18.40;;;;;;;15.08;86.14;93782.09;6116127;23;20120;-89
2021/06/09 02:21:53;;;;;;;19.50;16.48;;;;;;;15.02;85.54;93767.38;6113735;23;20081;-89
2021/06/09 02:24:19;;;;;;;24.42;18.10;;;;;;;15.07;85.31;93755.78;6106425;23;20428;-88
2021/06/09 02:26:45;;;;;;;20.35;14.57;;;;;;;15.18;84.79;93775.63;6080040;23;20500;-89
2021/06/09 02:29:15;;;;;;;16.25;12.07;;;;;;;15.01;83.68;93752.50;6108127;23;20207;-88
2021/06/09 02:31:46;;;;;;;13.38;11.25;;;;;;;15.25;83.84;93785.81;6073846;23;20014;-90
2021/06/09 02:34:14;;;;;;;18.08;11.95;;;;;;;15.32;84.22;93802.84;6108022;23;20428;-88
2021/06/09 02:36:42;;;;;;;14.27;10.88;;;;;;;15.38;83.56;93806.13;6108402;23;20017;-88
2021/06/09 02:39:07;;;;;;;13.90;10.38;;;;;;;15.16;83.52;93778.59;6108243;23;20456;-88
2021/06/09 02:41:33;;;;;;;13.07;11.40;;;;;;;15.30;83.55;93798.94;6107713;23;20053;-88
2021/06/09 02:44:00;;;;;;;14.40;12.45;;;;;;;15.15;83.39;93766.41;6105923;23;20029;-88
2021/06/09 02:46:33;;;;;;;18.20;13.25;;;;;;;15.10;83.48;93769.22;6111066;23;20022;-88
2021/06/09 02:49:05;;;;;;;26.25;16.77;;;;;;;15.09;83.63;93777.53;6109967;23;20539;-87
2021/06/09 02:51:42;;;;;;;24.30;16.13;;;;;;;15.08;83.91;93790.06;6116996;23;20046;-89
2021/06/09 02:54:21;;;;;;;25.35;15.20;;;;;;;14.98;83.96;93785.06;6106233;23;20069;-88
2021/06/09 02:56:59;;;;;;;17.00;12.13;;;;;;;14.89;83.92;93770.22;6106517;23;20013;-89
2021/06/09 02:59:52;;;;;;;27.02;16.75;;;;;;;14.85;83.81;93756.00;6108438;23;20088;-88
2021/06/09 03:02:55;;;;;;;32.92;19.77;;;;;;;15.05;84.29;93796.00;6108037;23;20093;-88
2021/06/09 03:05:41;;;;;;;46.72;20.67;;;;;;;15.15;84.85;93795.66;6114072;23;20185;-88
2021/06/09 03:08:37;;;;;;;81.75;24.60;;;;;;;15.16;85.22;93796.47;6105440;23;20030;-89
2021/06/09 03:11:05;;;;;;;;;;;;;;;15.29;85.31;93795.50;6107605;23;20523;-87
2021/06/09 03:14:03;;;;;;;21.15;15.10;;;;;;;15.05;85.07;93771.28;6129779;23;19932;-88
2021/06/09 03:16:43;;;;;;;29.38;15.35;;;;;;;15.27;84.67;93805.69;6110517;23;20013;-89
2021/06/09 03:19:16;;;;;;;47.97;18.13;;;;;;;15.14;83.98;93775.50;6109596;23;20348;-88
2021/06/09 03:21:54;;;;;;;38.30;16.95;;;;;;;15.39;83.92;93802.38;6111390;23;20002;-88
2021/06/09 03:24:40;;;;;;;162.30;23.58;;;;;;;15.43;84.19;93803.28;6111351;23;20032;-88
2021/06/09 03:27:21;;;;;;;161.45;25.33;;;;;;;15.46;84.11;93797.31;6109088;23;20029;-88
2021/06/09 03:29:54;;;;;;;151.13;24.50;;;;;;;15.46;84.83;93792.00;6106925;23;20009;-89
2021/06/09 03:32:57;;;;;;;328.88;31.27;;;;;;;15.67;84.91;93803.56;6112563;23;20021;-87
2021/06/09 03:35:29;;;;;;;206.32;23.15;;;;;;;15.81;84.70;93788.13;6110853;23;20052;-89
2021/06/09 03:37:57;;;;;;;177.50;21.58;;;;;;;15.89;84.52;93802.50;6105118;23;20009;-89
2021/06/09 03:40:34;;;;;;;85.22;20.27;;;;;;;15.93;84.61;93800.78;6106627;23;20097;-90
2021/06/09 03:43:05;;;;;;;57.60;19.65;;;;;;;15.99;83.64;93784.28;6109018;23;20318;-89
2021/06/09 03:45:34;;;;;;;176.25;24.48;;;;;;;15.91;82.42;93789.66;6111945;23;20010;-90
2021/06/09 03:48:01;;;;;;;54.50;18.83;;;;;;;16.04;82.04;93786.75;6112102;23;20112;-89
2021/06/09 03:50:29;;;;;;;31.00;15.82;;;;;;;16.08;80.20;93764.81;6115042;23;20033;-89
2021/06/09 03:53:08;;;;;;;50.15;16.92;;;;;;;16.08;80.23;93781.56;6110953;23;20045;-89
2021/06/09 03:55:50;;;;;;;31.02;16.35;;;;;;;16.12;80.74;93782.50;6049979;23;20612;-88
2021/06/09 03:58:27;;;;;;;68.10;19.38;;;;;;;15.99;80.59;93752.28;6061281;23;21399;-89
2021/06/09 04:00:55;;;;;;;196.13;24.42;;;;;;;16.11;80.29;93764.94;6123051;23;20009;-90
2021/06/09 04:03:24;;;;;;;342.65;32.65;;;;;;;16.24;81.45;93803.09;6108171;23;20322;-90
2021/06/09 04:05:52;;;;;;;309.65;28.90;;;;;;;15.94;82.05;93763.13;6112130;23;20093;-90
2021/06/09 04:08:20;;;;;;;195.20;24.75;;;;;;;16.04;82.18;93770.75;6109032;23;20022;-89
2021/06/09 04:10:47;;;;;;;110.10;21.75;;;;;;;16.16;82.65;93778.06;6117210;23;20014;-90
2021/06/09 04:13:14;;;;;;;97.45;21.63;;;;;;;16.20;82.33;93748.88;6109101;23;20001;-86
2021/06/09 04:15:41;;;;;;;126.38;35.25;;;;;;;16.58;81.47;93772.75;6122797;23;20013;-88
2021/06/09 04:18:08;;;;;;;32.33;18.98;;;;;;;16.78;81.60;93799.44;6111393;23;20018;-89
2021/06/09 04:20:35;;;;;;;213.73;29.15;;;;;;;16.84;81.14;93787.47;6113388;23;20018;-89
2021/06/09 04:23:02;;;;;;;50.85;20.52;;;;;;;16.87;80.63;93786.81;6107509;23;20025;-90
2021/06/09 04:25:28;;;;;;;113.32;22.63;;;;;;;17.02;79.61;93788.09;6117667;23;20149;-91
2021/06/09 04:27:54;;;;;;;72.47;21.38;;;;;;;17.08;79.12;93788.69;6112386;23;20089;-90
2021/06/09 04:30:21;;;;;;;27.88;19.77;;;;;;;17.19;79.20;93811.19;6107782;23;20429;-88
2021/06/09 04:32:52;;;;;;;44.78;21.27;;;;;;;17.10;78.46;93773.13;6107475;23;20041;-88
2021/06/09 04:35:19;;;;;;;67.80;23.33;;;;;;;17.42;78.00;93808.91;6107229;23;20021;-88
2021/06/09 04:37:45;;;;;;;91.85;24.77;;;;;;;17.43;77.87;93803.25;6110368;23;20018;-88
2021/06/09 04:40:27;;;;;;;61.10;21.73;;;;;;;17.40;78.32;93824.50;6104239;23;20136;-89
2021/06/09 04:42:55;;;;;;;195.50;29.00;;;;;;;17.25;78.28;93825.91;6124223;23;20156;-90
2021/06/09 04:45:23;;;;;;;48.10;22.27;;;;;;;17.12;78.48;93802.94;6107159;23;20061;-89
2021/06/09 04:47:49;;;;;;;40.10;20.35;;;;;;;17.42;78.13;93827.63;6110196;23;20223;-88
2021/06/09 04:50:19;;;;;;;129.10;25.95;;;;;;;17.42;77.38;93827.63;6107922;23;20037;-88
2021/06/09 04:52:44;;;;;;;47.28;21.33;;;;;;;17.27;77.90;93810.31;6096726;23;20463;-88
2021/06/09 04:55:10;;;;;;;94.50;26.15;;;;;;;17.26;77.61;93806.09;6106904;23;20740;-88
2021/06/09 04:57:36;;;;;;;77.47;25.08;;;;;;;17.38;78.19;93818.72;6118572;23;20057;-89
2021/06/09 05:00:09;;;;;;;78.80;24.80;;;;;;;17.23;78.53;93793.41;6106381;23;20045;-89
2021/06/09 05:02:34;;;;;;;33.45;22.75;;;;;;;17.49;78.99;93822.53;6108281;23;20065;-89
2021/06/09 05:05:00;;;;;;;59.00;23.00;;;;;;;17.68;78.01;93820.94;6114806;23;20030;-89
2021/06/09 05:07:25;;;;;;;63.95;23.05;;;;;;;17.80;77.58;93822.81;6097012;23;20072;-87
2021/06/09 05:09:52;;;;;;;41.42;23.35;;;;;;;17.88;77.17;93829.97;6110313;23;20005;-89
2021/06/09 05:12:53;;;;;;;50.70;22.52;;;;;;;17.74;77.80;93824.91;6108439;23;20117;-88
2021/06/09 05:18:55;;;;;;;49.88;22.05;;;;;;;18.13;76.55;93825.41;5903804;23;20024;-90
2021/06/09 05:22:12;;;;;;;70.53;23.45;;;;;;;18.40;74.76;93819.38;5848835;23;20029;-90
2021/06/09 05:24:39;;;;;;;28.10;18.17;;;;;;;18.25;72.71;93774.59;6063007;23;20013;-89
2021/06/09 05:27:14;;;;;;;32.15;20.50;;;;;;;18.48;72.57;93802.41;6108409;23;20048;-90
2021/06/09 05:29:43;;;;;;;24.85;18.63;;;;;;;18.55;73.53;93794.63;6099597;23;20010;-89
2021/06/09 05:32:09;;;;;;;27.00;18.63;;;;;;;18.92;71.82;93807.91;6102788;23;20022;-89
2021/06/09 05:34:40;;;;;;;26.30;20.25;;;;;;;18.72;72.57;93832.94;6105975;23;20267;-89
2021/06/09 05:38:16;;;;;;;25.30;19.77;;;;;;;18.99;71.85;93794.72;6040983;23;20137;-88
2021/06/09 05:44:15;;;;;;;28.63;20.83;;;;;;;20.20;67.33;93836.94;6076996;23;20248;-90
2021/06/09 05:47:18;;;;;;;23.42;19.17;;;;;;;20.22;66.11;93783.72;5978891;23;20030;-89
2021/06/09 05:53:16;;;;;;;25.92;19.67;;;;;;;21.33;62.55;93827.16;5897835;23;20024;-89
2021/06/09 05:55:47;;;;;;;22.47;18.37;;;;;;;21.37;61.79;93811.88;5975196;23;20016;-89
2021/06/09 05:58:29;;;;;;;21.10;17.83;;;;;;;21.50;61.03;93781.03;6016587;23;20083;-89
2021/06/09 06:00:57;;;;;;;28.58;18.80;;;;;;;22.37;57.03;93785.53;6050435;23;20332;-89
2021/06/09 06:03:25;;;;;;;23.35;18.95;;;;;;;22.67;56.62;93810.59;6014510;23;20528;-88
2021/06/09 06:05:59;;;;;;;22.85;17.27;;;;;;;23.93;53.52;93790.91;6111457;23;20025;-89
2021/06/09 06:08:25;;;;;;;20.65;16.08;;;;;;;25.02;49.59;93799.03;6109805;23;20018;-90
2021/06/09 06:10:52;;;;;;;18.48;14.23;;;;;;;26.19;46.60;93785.06;6144841;23;20009;-89
2021/06/09 06:13:19;;;;;;;17.20;14.98;;;;;;;26.96;44.31;93781.53;6113071;23;20464;-90
2021/06/09 06:15:45;;;;;;;16.65;14.85;;;;;;;27.97;41.43;93784.16;6143871;23;20044;-91
2021/06/09 06:18:10;;;;;;;18.17;13.73;;;;;;;28.44;40.59;93773.72;6140018;23;20049;-89
2021/06/09 06:20:36;;;;;;;15.30;13.70;;;;;;;28.90;40.85;93791.56;6138458;23;20051;-89
2021/06/09 06:23:02;;;;;;;18.33;14.73;;;;;;;29.43;38.75;93778.16;6174876;23;20017;-89
2021/06/09 06:25:28;;;;;;;18.58;13.02;;;;;;;30.29;38.04;93781.25;6142443;23;20510;-90
2021/06/09 06:27:55;;;;;;;17.20;13.48;;;;;;;30.81;36.18;93792.47;6182184;23;20352;-90
2021/06/09 06:30:23;;;;;;;16.35;12.23;;;;;;;31.29;35.24;93772.84;6169130;23;20021;-94
2021/06/09 06:32:57;;;;;;;13.80;11.25;;;;;;;31.87;33.99;93751.34;6166607;23;20040;-91
2021/06/09 06:35:29;;;;;;;12.55;11.20;;;;;;;32.19;34.14;93773.31;6169882;23;20013;-91
2021/06/09 06:38:20;;;;;;;13.07;10.35;;;;;;;32.83;33.55;93799.13;6039577;23;20048;-91
2021/06/09 06:40:47;;;;;;;11.95;10.73;;;;;;;33.40;32.49;93792.16;6138003;23;20016;-95
2021/06/09 06:43:13;;;;;;;13.02;10.77;;;;;;;33.63;32.27;93782.88;6180247;23;20043;-93
2021/06/09 06:45:39;;;;;;;12.80;10.27;;;;;;;33.73;31.52;93766.16;6184370;23;20084;-96
2021/06/09 06:48:08;;;;;;;15.73;10.90;;;;;;;34.22;30.52;93771.34;6148706;23;20013;-94
2021/06/09 06:50:34;;;;;;;11.93;9.48;;;;;;;35.24;29.13;93769.94;6175729;23;20116;-96
2021/06/09 06:53:04;;;;;;;11.43;9.05;;;;;;;34.97;29.60;93773.22;6147242;23;20017;-96
2021/06/09 06:55:30;;;;;;;13.57;8.65;;;;;;;36.26;27.95;93798.41;6180563;23;20043;-96
2021/06/09 06:58:00;;;;;;;9.90;7.95;;;;;;;36.15;28.09;93778.78;6192104;23;20009;-96
2021/06/09 07:00:29;;;;;;;8.88;8.07;;;;;;;35.83;27.98;93787.44;6176347;23;20013;-96
2021/06/09 07:02:57;;;;;;;9.13;7.90;;;;;;;35.95;27.82;93794.84;6179134;23;20021;-96
2021/06/09 07:08:07;;;;;;;10.60;8.43;;;;;;;35.71;27.70;93764.34;6154691;22;20287;-88
2021/06/09 07:10:33;;;;;;;8.50;7.50;;;;;;;36.46;27.14;93770.44;6104649;23;20503;-88
2021/06/09 07:13:01;;;;;;;8.35;7.68;;;;;;;37.05;26.74;93766.44;6141079;23;20041;-94
2021/06/09 07:15:28;;;;;;;8.55;6.72;;;;;;;38.64;24.87;93777.78;6119006;23;20085;-92
2021/06/09 07:17:58;;;;;;;8.60;6.38;;;;;;;39.70;23.47;93783.44;6117505;23;20535;-92
2021/06/09 07:20:26;;;;;;;9.00;5.78;;;;;;;40.51;22.85;93788.59;6116986;23;20041;-86
2021/06/09 07:22:53;;;;;;;6.80;5.90;;;;;;;40.46;22.17;93812.19;6118333;23;20084;-93
2021/06/09 07:25:20;;;;;;;8.43;5.00;;;;;;;41.18;20.96;93806.94;6111826;23;20571;-95
2021/06/09 07:27:50;;;;;;;8.68;6.10;;;;;;;41.60;21.28;93816.75;6125075;23;20096;-94
2021/06/09 07:30:18;;;;;;;6.97;5.38;;;;;;;41.69;21.26;93802.75;6111123;23;20767;-88
2021/06/09 07:32:48;;;;;;;4.85;4.50;;;;;;;42.72;20.14;93819.31;6113355;23;20024;-92
2021/06/09 07:35:15;;;;;;;7.50;5.32;;;;;;;42.92;19.26;93818.41;6125403;23;20075;-89
2021/06/09 07:37:43;;;;;;;5.10;4.35;;;;;;;43.59;19.20;93819.53;6123794;23;20006;-91
2021/06/09 07:40:13;;;;;;;6.78;4.28;;;;;;;44.13;18.60;93811.06;6116177;23;20341;-92
2021/06/09 07:42:44;;;;;;;4.97;3.40;;;;;;;44.32;17.27;93796.16;6128794;23;19989;-95
2021/06/09 07:45:11;;;;;;;3.72;3.05;;;;;;;44.43;18.14;93795.38;6112053;23;20066;-88
2021/06/09 07:47:40;;;;;;;3.08;2.78;;;;;;;44.71;17.21;93824.00;6118816;23;20010;-90
2021/06/09 07:50:07;;;;;;;8.07;3.42;;;;;;;43.82;17.79;93787.69;6105970;23;20022;-94
2021/06/09 07:52:36;;;;;;;5.68;3.15;;;;;;;43.90;17.11;93827.72;6110069;23;20538;-91
2021/06/09 07:55:04;;;;;;;3.92;3.33;;;;;;;44.90;16.79;93820.66;6126757;23;20006;-91
2021/06/09 07:57:33;;;;;;;5.20;2.92;;;;;;;43.78;17.42;93830.97;6129947;23;19994;-92
2021/06/09 08:00:02;;;;;;;3.88;3.58;;;;;;;42.78;18.06;93822.88;6117896;23;20116;-95
2021/06/09 08:02:27;;;;;;;8.05;4.28;;;;;;;43.72;18.23;93821.84;6108598;23;20022;-92
2021/06/09 08:04:53;;;;;;;9.48;5.18;;;;;;;43.54;18.67;93823.06;6115831;23;20496;-94
2021/06/09 08:07:18;;;;;;;5.82;4.20;;;;;;;43.49;17.59;93818.25;6114251;23;20063;-93
2021/06/09 08:09:44;;;;;;;10.35;4.88;;;;;;;44.04;18.17;93826.72;6122472;23;20029;-87
2021/06/09 08:12:10;;;;;;;5.55;4.97;;;;;;;43.94;17.75;93799.63;6118230;23;20049;-90
2021/06/09 08:14:35;;;;;;;5.97;5.40;;;;;;;44.40;16.54;93827.03;6119943;23;20382;-90
2021/06/09 08:17:01;;;;;;;6.43;4.43;;;;;;;44.53;17.59;93810.56;6118168;23;20026;-94
2021/06/09 08:19:28;;;;;;;6.15;4.55;;;;;;;45.17;17.38;93794.75;6119728;23;20010;-93
2021/06/09 08:21:56;;;;;;;4.03;2.67;;;;;;;44.59;16.96;93816.88;6121217;23;20068;-90
2021/06/09 08:24:27;;;;;;;4.38;3.88;;;;;;;44.99;17.07;93817.59;6046262;23;20055;-95
2021/06/09 08:27:02;;;;;;;6.05;4.50;;;;;;;44.67;16.96;93792.09;6095813;23;20406;-95
2021/06/09 08:29:37;;;;;;;3.90;3.55;;;;;;;44.57;16.49;93788.78;6094438;23;20013;-95
2021/06/09 08:32:04;;;;;;;5.90;5.40;;;;;;;44.39;17.29;93820.69;6128155;23;20022;-93
2021/06/09 08:34:30;;;;;;;6.22;5.35;;;;;;;43.80;17.55;93787.44;6123093;23;20076;-91
2021/06/09 08:36:58;;;;;;;5.82;4.38;;;;;;;43.78;17.80;93805.91;6113822;23;20010;-94
2021/06/09 08:39:28;;;;;;;5.00;3.95;;;;;;;42.75;18.09;93810.00;6117463;23;20020;-88
2021/06/09 08:41:57;;;;;;;5.20;4.22;;;;;;;41.80;18.84;93792.50;6117804;23;20013;-95
2021/06/09 08:44:32;;;;;;;6.00;4.22;;;;;;;41.33;19.64;93774.34;6074401;23;20026;-94
2021/06/09 08:47:03;;;;;;;5.40;3.38;;;;;;;41.59;18.84;93776.41;6104380;23;20088;-92
2021/06/09 08:49:33;;;;;;;5.55;2.17;;;;;;;41.44;18.13;93787.56;6113081;23;20014;-91
2021/06/09 08:51:59;;;;;;;4.80;2.10;;;;;;;41.28;18.63;93800.00;6126323;23;20009;-95
2021/06/09 08:54:25;;;;;;;5.03;2.20;;;;;;;40.07;18.57;93813.53;6117814;23;20013;-92
2021/06/09 08:56:54;;;;;;;8.45;3.45;;;;;;;40.17;19.06;93792.81;6112210;23;20029;-92
2021/06/09 08:59:24;;;;;;;8.10;2.63;;;;;;;40.80;19.10;93787.75;6111838;23;20452;-84
2021/06/09 09:01:50;;;;;;;3.53;2.33;;;;;;;40.65;19.24;93810.75;6110966;23;20076;-89
2021/06/09 09:04:16;;;;;;;9.38;3.72;;;;;;;39.34;20.42;93797.63;6124642;23;20113;-92
2021/06/09 09:06:41;;;;;;;5.07;2.72;;;;;;;39.55;20.10;93788.19;6114073;23;20033;-92
2021/06/09 09:09:07;;;;;;;4.50;3.05;;;;;;;37.70;21.17;93790.03;6113545;23;20029;-91
2021/06/09 09:11:34;;;;;;;5.57;4.05;;;;;;;36.68;22.34;93795.16;6113227;23;20030;-83
2021/06/09 09:13:59;;;;;;;8.43;3.80;;;;;;;36.62;22.32;93806.00;6105951;23;20041;-94
2021/06/09 09:16:25;;;;;;;3.85;3.40;;;;;;;34.79;24.74;93811.50;6112545;23;20025;-92
2021/06/09 09:19:00;;;;;;;4.55;3.35;;;;;;;34.10;24.99;93807.75;6115186;23;20073;-92
2021/06/09 09:21:39;;;;;;;3.17;2.88;;;;;;;34.08;25.34;93805.44;6111814;23;20071;-88
2021/06/09 09:24:08;;;;;;;4.43;3.17;;;;;;;33.94;26.06;93820.34;6111925;23;20017;-91
2021/06/09 09:26:35;;;;;;;5.07;3.38;;;;;;;33.58;26.98;93803.38;6110462;23;20068;-88
2021/06/09 09:29:21;;;;;;;6.35;3.45;;;;;;;33.56;25.86;93814.00;6111449;23;20025;-87
2021/06/09 09:31:55;;;;;;;4.75;2.83;;;;;;;32.82;27.24;93811.25;6116163;23;20018;-88
2021/06/09 09:34:42;;;;;;;7.22;3.10;;;;;;;31.68;28.45;93809.56;6119911;23;20080;-90
2021/06/09 09:37:17;;;;;;;7.38;3.42;;;;;;;31.58;28.18;93799.63;6110088;23;20484;-93
2021/06/09 09:39:46;;;;;;;5.38;3.55;;;;;;;31.54;28.47;93798.91;6112873;23;20005;-86
2021/06/09 09:42:31;;;;;;;4.85;3.40;;;;;;;31.23;28.25;93795.59;6110423;23;20021;-89
2021/06/09 09:45:29;;;;;;;3.70;2.60;;;;;;;31.55;28.04;93789.50;6111125;23;20024;-90
2021/06/09 09:48:03;;;;;;;6.45;3.25;;;;;;;31.47;28.64;93791.63;6106775;23;20018;-89
2021/06/09 09:50:41;;;;;;;;;;;;;;;30.97;30.23;93794.53;6115056;23;20021;-88
2021/06/09 09:53:23;;;;;;;4.25;3.40;;;;;;;30.24;30.27;93770.03;6093297;23;20328;-89
2021/06/09 09:56:08;;;;;;;3.83;3.50;;;;;;;29.93;29.06;93788.41;6108532;23;20024;-88
2021/06/09 09:58:37;;;;;;;3.83;2.83;;;;;;;29.90;29.28;93783.78;6111331;23;20322;-87
2021/06/09 10:01:19;;;;;;;4.57;2.65;;;;;;;30.22;30.92;93781.34;6115416;23;20409;-89
2021/06/09 10:03:48;;;;;;;3.10;2.60;;;;;;;29.67;30.89;93768.88;6117284;23;20263;-89
2021/06/09 10:06:32;;;;;;;3.30;3.00;;;;;;;30.07;31.21;93772.63;6107011;23;20476;-90
2021/06/09 10:09:08;;;;;;;2.20;1.73;;;;;;;29.85;28.76;93776.03;6105862;23;20022;-86
2021/06/09 10:12:02;;;;;;;3.00;2.10;;;;;;;29.33;27.94;93765.44;6114057;23;20532;-86
2021/06/09 10:14:41;;;;;;;5.03;2.97;;;;;;;29.39;29.04;93776.66;6130857;23;20021;-87
2021/06/09 10:17:19;;;;;;;5.47;2.28;;;;;;;29.11;30.00;93777.75;6093615;23;20260;-91
2021/06/09 10:19:51;;;;;;;2.97;2.53;;;;;;;28.75;29.81;93725.66;6110593;23;20067;-86
2021/06/09 10:22:42;;;;;;;3.28;2.70;;;;;;;28.33;31.06;93752.06;6105535;23;20092;-93
2021/06/09 10:25:33;;;;;;;3.22;2.50;;;;;;;28.29;31.01;93759.50;6089999;23;20006;-87
2021/06/09 10:27:59;;;;;;;3.45;2.47;;;;;;;28.30;29.79;93744.72;6083231;23;20013;-90
2021/06/09 10:30:26;;;;;;;5.40;2.40;;;;;;;28.44;30.11;93741.13;6118168;23;20002;-87
2021/06/09 10:33:02;;;;;;;2.53;2.33;;;;;;;28.62;31.16;93746.38;6105267;23;20026;-87
2021/06/09 10:35:41;;;;;;;5.95;2.95;;;;;;;28.56;32.05;93710.69;6105071;23;20017;-87
2021/06/09 10:38:10;;;;;;;3.67;2.75;;;;;;;28.90;31.30;93712.69;6075894;23;20028;-86
2021/06/09 10:40:48;;;;;;;5.07;2.85;;;;;;;29.14;30.00;93744.25;6092221;23;20014;-86
2021/06/09 10:43:23;;;;;;;3.00;2.65;;;;;;;29.15;30.30;93696.81;6062961;23;20083;-87
2021/06/09 10:45:56;;;;;;;6.22;2.85;;;;;;;28.94;30.10;93702.53;6069423;23;20484;-84
2021/06/09 10:48:32;;;;;;;6.35;2.60;;;;;;;28.83;31.18;93705.38;6105887;23;20053;-85
2021/06/09 10:50:58;;;;;;;4.53;2.55;;;;;;;28.86;33.70;93734.50;6106196;23;20014;-87
2021/06/09 10:53:33;;;;;;;2.70;2.33;;;;;;;28.40;33.92;93689.47;6074451;23;20362;-89
2021/06/09 10:55:58;;;;;;;4.68;2.75;;;;;;;28.48;34.40;93714.66;6111216;23;20044;-86
2021/06/09 10:58:24;;;;;;;3.95;2.25;;;;;;;28.74;34.24;93732.28;6118377;23;20460;-89
2021/06/09 11:00:54;;;;;;;4.10;2.47;;;;;;;28.94;33.68;93741.38;6119619;23;20108;-88
2021/06/09 11:03:19;;;;;;;6.57;2.90;;;;;;;28.83;33.59;93719.72;6105631;23;20112;-87
2021/06/09 11:05:45;;;;;;;3.08;2.40;;;;;;;28.99;32.67;93718.41;6101993;23;20556;-88
2021/06/09 11:08:16;;;;;;;3.97;2.30;;;;;;;29.36;31.52;93731.19;6102641;23;20303;-88
2021/06/09 11:10:45;;;;;;;2.22;2.03;;;;;;;29.64;32.13;93728.09;6107323;23;20467;-92
2021/06/09 11:13:41;;;;;;;7.07;2.47;;;;;;;29.85;31.93;93722.34;6111138;23;20005;-88
2021/06/09 11:16:14;;;;;;;;;;;;;;;29.86;30.76;93714.94;6115448;23;20060;-91
2021/06/09 11:18:46;;;;;;;6.93;2.33;;;;;;;29.87;31.24;93711.00;6109123;23;19909;-89
2021/06/09 11:21:36;;;;;;;2.88;2.17;;;;;;;29.67;28.70;93711.69;6104608;23;20453;-87
2021/06/09 11:24:19;;;;;;;2.45;1.92;;;;;;;29.58;28.68;93714.16;6099459;23;20496;-87
2021/06/09 11:26:45;;;;;;;3.13;1.85;;;;;;;29.38;28.95;93666.97;5957033;23;20023;-89
2021/06/09 11:29:29;;;;;;;5.05;2.00;;;;;;;29.87;31.45;93675.59;6091314;23;20026;-90
2021/06/09 11:32:24;;;;;;;4.43;2.13;;;;;;;30.29;31.50;93702.19;6095576;23;20009;-88
2021/06/09 11:35:06;;;;;;;7.43;2.63;;;;;;;29.75;29.97;93671.50;6102809;23;20722;-88
2021/06/09 11:37:31;;;;;;;2.72;1.90;;;;;;;29.50;29.37;93644.66;6025647;23;21252;-88
2021/06/09 11:40:03;;;;;;;3.65;2.20;;;;;;;29.87;29.70;93689.22;6072354;23;20140;-90
2021/06/09 11:42:28;;;;;;;2.45;2.20;;;;;;;29.66;31.01;93636.59;6108868;23;20017;-89
2021/06/09 11:45:19;;;;;;;2.67;2.10;;;;;;;29.97;31.22;93652.88;6102531;23;20357;-88
2021/06/09 11:47:45;;;;;;;2.45;1.77;;;;;;;29.98;29.89;93643.53;6110547;23;20760;-88
2021/06/09 11:50:40;;;;;;;4.47;2.33;;;;;;;29.50;31.65;93644.66;6110500;23;20018;-88
2021/06/09 11:53:19;;;;;;;4.15;2.40;;;;;;;29.14;31.61;93646.31;6084086;23;20014;-90
2021/06/09 11:56:12;;;;;;;5.57;1.90;;;;;;;29.40;31.71;93678.25;6098572;23;20913;-89
2021/06/09 11:58:39;;;;;;;9.25;3.00;;;;;;;29.04;32.25;93669.75;6070781;23;20539;-91